sensor_id;sensor_type;location;lat;lon;timestamp;pressure;altitude;pressure_sealevel;temperature;humidity
65800;BME280;52544;48.116;11.660;2022-12-18T00:01:19;96691.31;;;-4.92;100.00
65800;BME280;52544;48.116;11.660;2022-12-18T00:03:45;96699.03;;;-4.90;100.00
65800;BME280;52544;48.116;11.660;2022-12-18T00:06:10;96693.03;;;-4.91;100.00
65800;BME280;52544;48.116;11.660;2022-12-18T00:08:37;96683.56;;;-4.90;100.00
65800;BME280;52544;48.116;11.660;2022-12-18T00:11:07;96680.13;;;-4.92;100.00
65800;BME280;52544;48.116;11.660;2022-12-18T00:13:33;96674.09;;;-4.94;100.00
65800;BME280;52544;48.116;11.660;2022-12-18T00:16:03;96680.13;;;-4.94;100.00
65800;BME280;52544;48.116;11.660;2022-12-18T00:18:29;96672.38;;;-4.94;100.00
65800;BME280;52544;48.116;11.660;2022-12-18T00:21:01;96672.38;;;-4.94;100.00
65800;BME280;52544;48.116;11.660;2022-12-18T00:23:28;96676.66;;;-4.90;100.00
65800;BME280;52544;48.116;11.660;2022-12-18T00:25:54;96682.69;;;-4.88;100.00
65800;BME280;52544;48.116;11.660;2022-12-18T00:28:20;96687.84;;;-4.89;100.00
65800;BME280;52544;48.116;11.660;2022-12-18T00:30:45;96677.56;;;-4.95;100.00
65800;BME280;52544;48.116;11.660;2022-12-18T00:33:10;96679.25;;;-4.93;100.00
65800;BME280;52544;48.116;11.660;2022-12-18T00:35:36;96681.00;;;-4.95;100.00
65800;BME280;52544;48.116;11.660;2022-12-18T00:38:01;96697.38;;;-4.97;100.00
65800;BME280;52544;48.116;11.660;2022-12-18T00:40:26;96704.22;;;-4.93;100.00
65800;BME280;52544;48.116;11.660;2022-12-18T00:42:52;96714.59;;;-4.96;100.00
65800;BME280;52544;48.116;11.660;2022-12-18T00:45:30;96712.00;;;-4.95;100.00
65800;BME280;52544;48.116;11.660;2022-12-18T00:47:56;96714.59;;;-4.96;100.00
65800;BME280;52544;48.116;11.660;2022-12-18T00:50:23;96706.00;;;-5.00;100.00
65800;BME280;52544;48.116;11.660;2022-12-18T00:52:49;96706.88;;;-5.03;100.00
65800;BME280;52544;48.116;11.660;2022-12-18T00:55:15;96710.28;;;-4.96;100.00
65800;BME280;52544;48.116;11.660;2022-12-18T00:57:41;96712.00;;;-4.98;100.00
65800;BME280;52544;48.116;11.660;2022-12-18T01:00:08;96712.03;;;-5.01;100.00
65800;BME280;52544;48.116;11.660;2022-12-18T01:02:34;96717.19;;;-5.03;100.00
65800;BME280;52544;48.116;11.660;2022-12-18T01:04:59;96715.50;;;-5.05;100.00
65800;BME280;52544;48.116;11.660;2022-12-18T01:07:24;96718.06;;;-5.07;100.00
65800;BME280;52544;48.116;11.660;2022-12-18T01:09:50;96715.53;;;-5.11;100.00
65800;BME280;52544;48.116;11.660;2022-12-18T01:12:15;96721.59;;;-5.18;100.00
65800;BME280;52544;48.116;11.660;2022-12-18T01:14:41;96721.63;;;-5.21;100.00
65800;BME280;52544;48.116;11.660;2022-12-18T01:17:06;96727.66;;;-5.25;100.00
65800;BME280;52544;48.116;11.660;2022-12-18T01:19:32;96725.06;;;-5.27;100.00
65800;BME280;52544;48.116;11.660;2022-12-18T01:21:57;96731.97;;;-5.24;100.00
65800;BME280;52544;48.116;11.660;2022-12-18T01:24:23;96736.25;;;-5.23;100.00
65800;BME280;52544;48.116;11.660;2022-12-18T01:26:50;96744.88;;;-5.28;100.00
65800;BME280;52544;48.116;11.660;2022-12-18T01:29:15;96745.72;;;-5.22;100.00
65800;BME280;52544;48.116;11.660;2022-12-18T01:31:41;96749.16;;;-5.22;100.00
65800;BME280;52544;48.116;11.660;2022-12-18T01:34:06;96760.28;;;-5.15;100.00
65800;BME280;52544;48.116;11.660;2022-12-18T01:36:33;96765.47;;;-5.14;100.00
65800;BME280;52544;48.116;11.660;2022-12-18T01:39:05;96762.88;;;-5.09;100.00
65800;BME280;52544;48.116;11.660;2022-12-18T01:41:32;96768.88;;;-5.07;100.00
65800;BME280;52544;48.116;11.660;2022-12-18T01:47:37;96765.44;;;-5.09;100.00
65800;BME280;52544;48.116;11.660;2022-12-18T01:50:10;96772.31;;;-5.08;100.00
65800;BME280;52544;48.116;11.660;2022-12-18T01:52:43;96766.28;;;-5.10;100.00
65800;BME280;52544;48.116;11.660;2022-12-18T01:55:11;96769.75;;;-5.11;100.00
65800;BME280;52544;48.116;11.660;2022-12-18T01:57:38;96765.44;;;-5.12;100.00
65800;BME280;52544;48.116;11.660;2022-12-18T02:00:13;96769.75;;;-5.13;100.00
65800;BME280;52544;48.116;11.660;2022-12-18T02:02:41;96765.44;;;-5.09;100.00
65800;BME280;52544;48.116;11.660;2022-12-18T02:05:07;96767.16;;;-5.10;100.00
65800;BME280;52544;48.116;11.660;2022-12-18T02:07:42;96764.56;;;-5.11;100.00
65800;BME280;52544;48.116;11.660;2022-12-18T02:10:21;96765.44;;;-5.09;100.00
65800;BME280;52544;48.116;11.660;2022-12-18T02:15:37;96756.00;;;-5.13;100.00
65800;BME280;52544;48.116;11.660;2022-12-18T02:18:09;96742.28;;;-5.21;100.00
65800;BME280;52544;48.116;11.660;2022-12-18T02:20:45;96747.41;;;-5.17;100.00
65800;BME280;52544;48.116;11.660;2022-12-18T02:23:35;96749.09;;;-5.14;100.00
65800;BME280;52544;48.116;11.660;2022-12-18T02:26:20;96749.09;;;-5.13;100.00
65800;BME280;52544;48.116;11.660;2022-12-18T02:28:57;96756.00;;;-5.15;100.00
65800;BME280;52544;48.116;11.660;2022-12-18T02:31:28;96757.69;;;-5.11;100.00
65800;BME280;52544;48.116;11.660;2022-12-18T02:34:00;96753.38;;;-5.10;100.00
65800;BME280;52544;48.116;11.660;2022-12-18T02:36:28;96749.94;;;-5.11;100.00
65800;BME280;52544;48.116;11.660;2022-12-18T02:38:55;96762.00;;;-5.08;100.00
65800;BME280;52544;48.116;11.660;2022-12-18T02:41:25;96753.38;;;-5.04;100.00
65800;BME280;52544;48.116;11.660;2022-12-18T02:43:56;96748.19;;;-5.01;100.00
65800;BME280;52544;48.116;11.660;2022-12-18T02:48:58;96743.06;;;-5.10;100.00
65800;BME280;52544;48.116;11.660;2022-12-18T02:51:36;96744.81;;;-5.14;100.00
65800;BME280;52544;48.116;11.660;2022-12-18T02:54:10;96740.50;;;-5.15;100.00
65800;BME280;52544;48.116;11.660;2022-12-18T02:56:46;96749.09;;;-5.14;100.00
65800;BME280;52544;48.116;11.660;2022-12-18T02:59:23;96753.44;;;-5.16;100.00
65800;BME280;52544;48.116;11.660;2022-12-18T03:01:58;96750.81;;;-5.15;100.00
65800;BME280;52544;48.116;11.660;2022-12-18T03:04:45;96746.50;;;-5.11;100.00
65800;BME280;52544;48.116;11.660;2022-12-18T03:07:20;96749.97;;;-5.14;100.00
65800;BME280;52544;48.116;11.660;2022-12-18T03:09:50;96756.84;;;-5.10;100.00
65800;BME280;52544;48.116;11.660;2022-12-18T03:12:30;96755.13;;;-5.15;100.00
65800;BME280;52544;48.116;11.660;2022-12-18T03:17:33;96737.06;;;-5.18;100.00
65800;BME280;52544;48.116;11.660;2022-12-18T03:20:07;96747.41;;;-5.14;100.00
65800;BME280;52544;48.116;11.660;2022-12-18T03:22:35;96742.22;;;-5.09;100.00
65800;BME280;52544;48.116;11.660;2022-12-18T03:25:05;96738.78;;;-5.10;100.00
65800;BME280;52544;48.116;11.660;2022-12-18T03:27:33;96742.22;;;-5.09;100.00
65800;BME280;52544;48.116;11.660;2022-12-18T03:30:07;96746.50;;;-5.08;100.00
65800;BME280;52544;48.116;11.660;2022-12-18T03:32:39;96742.22;;;-5.09;100.00
65800;BME280;52544;48.116;11.660;2022-12-18T03:35:08;96739.63;;;-5.11;100.00
65800;BME280;52544;48.116;11.660;2022-12-18T03:37:35;96742.22;;;-5.09;100.00
65800;BME280;52544;48.116;11.660;2022-12-18T03:40:00;96738.78;;;-5.10;100.00
65800;BME280;52544;48.116;11.660;2022-12-18T03:48:34;96755.09;;;-5.05;100.00
65800;BME280;52544;48.116;11.660;2022-12-18T03:50:46;96752.50;;;-5.06;100.00
65800;BME280;52544;48.116;11.660;2022-12-18T03:56:00;96753.38;;;-5.07;100.00
65800;BME280;52544;48.116;11.660;2022-12-18T03:58:28;96752.50;;;-5.08;100.00
65800;BME280;52544;48.116;11.660;2022-12-18T04:00:56;96751.66;;;-5.05;100.00
65800;BME280;52544;48.116;11.660;2022-12-18T04:03:26;96747.34;;;-5.08;100.00
65800;BME280;52544;48.116;11.660;2022-12-18T04:05:54;96749.13;;;-5.16;100.00
65800;BME280;52544;48.116;11.660;2022-12-18T04:08:21;96763.75;;;-5.13;100.00
65800;BME280;52544;48.116;11.660;2022-12-18T04:10:47;96755.13;;;-5.15;100.00
65800;BME280;52544;48.116;11.660;2022-12-18T04:13:21;96760.28;;;-5.12;100.00
65800;BME280;52544;48.116;11.660;2022-12-18T04:15:47;96754.28;;;-5.13;100.00
65800;BME280;52544;48.116;11.660;2022-12-18T04:18:12;96754.25;;;-5.10;100.00
65800;BME280;52544;48.116;11.660;2022-12-18T04:20:38;96755.13;;;-5.09;100.00
65800;BME280;52544;48.116;11.660;2022-12-18T04:23:03;96751.69;;;-5.10;100.00
65800;BME280;52544;48.116;11.660;2022-12-18T04:25:28;96763.69;;;-5.06;100.00
65800;BME280;52544;48.116;11.660;2022-12-18T04:27:54;96757.69;;;-5.08;100.00
65800;BME280;52544;48.116;11.660;2022-12-18T04:30:19;96755.09;;;-5.08;100.00
65800;BME280;52544;48.116;11.660;2022-12-18T04:32:45;96765.41;;;-5.06;100.00
65800;BME280;52544;48.116;11.660;2022-12-18T04:35:10;96767.09;;;-5.02;100.00
65800;BME280;52544;48.116;11.660;2022-12-18T04:37:37;96768.00;;;-5.11;100.00
65800;BME280;52544;48.116;11.660;2022-12-18T04:40:02;96765.44;;;-5.09;100.00
65800;BME280;52544;48.116;11.660;2022-12-18T04:42:28;96768.91;;;-5.13;100.00
65800;BME280;52544;48.116;11.660;2022-12-18T04:44:54;96767.16;;;-5.14;100.00
65800;BME280;52544;48.116;11.660;2022-12-18T04:47:20;96762.00;;;-5.14;100.00
65800;BME280;52544;48.116;11.660;2022-12-18T04:49:45;96762.00;;;-5.11;100.00
65800;BME280;52544;48.116;11.660;2022-12-18T04:52:10;96776.63;;;-5.15;100.00
65800;BME280;52544;48.116;11.660;2022-12-18T04:54:36;96780.06;;;-5.14;100.00
65800;BME280;52544;48.116;11.660;2022-12-18T04:57:01;96788.69;;;-5.14;100.00
65800;BME280;52544;48.116;11.660;2022-12-18T04:59:27;96792.13;;;-5.13;100.00
65800;BME280;52544;48.116;11.660;2022-12-18T05:01:52;96782.66;;;-5.11;100.00
65800;BME280;52544;48.116;11.660;2022-12-18T05:04:18;96780.09;;;-5.19;100.00
65800;BME280;52544;48.116;11.660;2022-12-18T05:06:43;96781.81;;;-5.19;100.00
65800;BME280;52544;48.116;11.660;2022-12-18T05:09:09;96791.28;;;-5.20;100.00
65800;BME280;52544;48.116;11.660;2022-12-18T05:11:34;96790.44;;;-5.20;100.00
65800;BME280;52544;48.116;11.660;2022-12-18T05:13:59;96798.16;;;-5.19;100.00
65800;BME280;52544;48.116;11.660;2022-12-18T05:16:25;96794.72;;;-5.16;100.00
65800;BME280;52544;48.116;11.660;2022-12-18T05:18:50;96800.72;;;-5.14;100.00
65800;BME280;52544;48.116;11.660;2022-12-18T05:21:15;96801.59;;;-5.12;100.00
65800;BME280;52544;48.116;11.660;2022-12-18T05:23:41;96805.00;;;-5.10;100.00
65800;BME280;52544;48.116;11.660;2022-12-18T05:26:14;96804.13;;;-5.06;100.00
65800;BME280;52544;48.116;11.660;2022-12-18T05:28:40;96801.56;;;-5.06;100.00
65800;BME280;52544;48.116;11.660;2022-12-18T05:31:06;96796.44;;;-5.12;100.00
65800;BME280;52544;48.116;11.660;2022-12-18T05:33:33;96799.84;;;-5.10;100.00
65800;BME280;52544;48.116;11.660;2022-12-18T05:36:00;96787.81;;;-5.11;100.00
65800;BME280;52544;48.116;11.660;2022-12-18T05:38:27;96799.88;;;-5.13;100.00
65800;BME280;52544;48.116;11.660;2022-12-18T05:40:53;96811.97;;;-5.21;100.00
65800;BME280;52544;48.116;11.660;2022-12-18T05:43:19;96808.50;;;-5.20;100.00
65800;BME280;52544;48.116;11.660;2022-12-18T05:45:46;96817.97;;;-5.19;100.00
65800;BME280;52544;48.116;11.660;2022-12-18T05:48:12;96813.69;;;-5.28;100.00
65800;BME280;52544;48.116;11.660;2022-12-18T05:50:39;96811.13;;;-5.26;100.00
65800;BME280;52544;48.116;11.660;2022-12-18T05:53:05;96810.25;;;-5.29;100.00
65800;BME280;52544;48.116;11.660;2022-12-18T05:55:39;96815.44;;;-5.32;100.00
65800;BME280;52544;48.116;11.660;2022-12-18T05:58:06;96816.28;;;-5.31;100.00
65800;BME280;52544;48.116;11.660;2022-12-18T06:00:34;96818.88;;;-5.26;100.00
65800;BME280;52544;48.116;11.660;2022-12-18T06:03:01;96821.41;;;-5.23;100.00
65800;BME280;52544;48.116;11.660;2022-12-18T06:05:27;96825.72;;;-5.21;100.00
65800;BME280;52544;48.116;11.660;2022-12-18T06:07:52;96819.72;;;-5.26;100.00
65800;BME280;52544;48.116;11.660;2022-12-18T06:10:18;96822.28;;;-5.24;100.00
65800;BME280;52544;48.116;11.660;2022-12-18T06:12:43;96827.44;;;-5.24;100.00
65800;BME280;52544;48.116;11.660;2022-12-18T06:15:09;96839.53;;;-5.30;100.00
65800;BME280;52544;48.116;11.660;2022-12-18T06:17:35;96826.63;;;-5.37;100.00
65800;BME280;52544;48.116;11.660;2022-12-18T06:20:01;96833.53;;;-5.42;100.00
65800;BME280;52544;48.116;11.660;2022-12-18T06:22:26;96833.56;;;-5.47;100.00
65800;BME280;52544;48.116;11.660;2022-12-18T06:24:52;96827.56;;;-5.52;100.00
65800;BME280;52544;48.116;11.660;2022-12-18T06:27:18;96831.84;;;-5.49;100.00
65800;BME280;52544;48.116;11.660;2022-12-18T06:29:44;96832.69;;;-5.46;100.00
65800;BME280;52544;48.116;11.660;2022-12-18T06:32:09;96837.84;;;-5.46;100.00
65800;BME280;52544;48.116;11.660;2022-12-18T06:34:37;96841.31;;;-5.50;100.00
65800;BME280;52544;48.116;11.660;2022-12-18T06:37:02;96839.56;;;-5.49;100.00
65800;BME280;52544;48.116;11.660;2022-12-18T06:39:28;96837.84;;;-5.46;100.00
65800;BME280;52544;48.116;11.660;2022-12-18T06:41:53;96850.75;;;-5.43;100.00
65800;BME280;52544;48.116;11.660;2022-12-18T06:44:19;96849.03;;;-5.42;100.00
65800;BME280;52544;48.116;11.660;2022-12-18T06:46:44;96844.72;;;-5.48;100.00
65800;BME280;52544;48.116;11.660;2022-12-18T06:49:10;96850.75;;;-5.49;100.00
65800;BME280;52544;48.116;11.660;2022-12-18T06:51:35;96851.63;;;-5.51;100.00
65800;BME280;52544;48.116;11.660;2022-12-18T06:54:01;96854.19;;;-5.45;100.00
65800;BME280;52544;48.116;11.660;2022-12-18T06:56:27;96863.66;;;-5.47;100.00
65800;BME280;52544;48.116;11.660;2022-12-18T06:58:53;96862.78;;;-5.48;100.00
65800;BME280;52544;48.116;11.660;2022-12-18T07:01:19;96866.25;;;-5.52;100.00
65800;BME280;52544;48.116;11.660;2022-12-18T07:03:44;96869.69;;;-5.53;100.00
65800;BME280;52544;48.116;11.660;2022-12-18T07:06:15;96878.28;;;-5.53;100.00
65800;BME280;52544;48.116;11.660;2022-12-18T07:08:41;96877.41;;;-5.61;100.00
65800;BME280;52544;48.116;11.660;2022-12-18T07:11:06;96885.16;;;-5.61;100.00
65800;BME280;52544;48.116;11.660;2022-12-18T07:13:32;96884.31;;;-5.58;100.00
65800;BME280;52544;48.116;11.660;2022-12-18T07:16:12;96884.31;;;-5.61;100.00
65800;BME280;52544;48.116;11.660;2022-12-18T07:18:37;96889.47;;;-5.63;100.00
65800;BME280;52544;48.116;11.660;2022-12-18T07:21:05;96889.50;;;-5.69;100.00
65800;BME280;52544;48.116;11.660;2022-12-18T07:23:32;96896.34;;;-5.69;100.00
65800;BME280;52544;48.116;11.660;2022-12-18T07:26:06;96900.66;;;-5.70;100.00
65800;BME280;52544;48.116;11.660;2022-12-18T07:28:33;96898.94;;;-5.66;100.00
65800;BME280;52544;48.116;11.660;2022-12-18T07:31:11;96900.66;;;-5.65;100.00
65800;BME280;52544;48.116;11.660;2022-12-18T07:33:37;96910.97;;;-5.67;100.00
65800;BME280;52544;48.116;11.660;2022-12-18T07:36:05;96896.38;;;-5.63;100.00
65800;BME280;52544;48.116;11.660;2022-12-18T07:38:31;96916.16;;;-5.68;100.00
65800;BME280;52544;48.116;11.660;2022-12-18T07:41:05;96905.81;;;-5.65;100.00
65800;BME280;52544;48.116;11.660;2022-12-18T07:43:31;96908.38;;;-5.62;100.00
65800;BME280;52544;48.116;11.660;2022-12-18T07:45:56;96909.25;;;-5.59;100.00
65800;BME280;52544;48.116;11.660;2022-12-18T07:48:22;96891.19;;;-5.63;100.00
65800;BME280;52544;48.116;11.660;2022-12-18T07:50:48;96890.31;;;-5.61;100.00
65800;BME280;52544;48.116;11.660;2022-12-18T07:53:13;96896.38;;;-5.60;100.00
65800;BME280;52544;48.116;11.660;2022-12-18T07:55:40;96887.75;;;-5.59;100.00
65800;BME280;52544;48.116;11.660;2022-12-18T07:58:07;96892.03;;;-5.57;100.00
65800;BME280;52544;48.116;11.660;2022-12-18T08:00:33;96890.31;;;-5.58;100.00
65800;BME280;52544;48.116;11.660;2022-12-18T08:02:58;96897.22;;;-5.60;100.00
65800;BME280;52544;48.116;11.660;2022-12-18T08:05:24;96904.97;;;-5.63;100.00
65800;BME280;52544;48.116;11.660;2022-12-18T08:07:50;96903.22;;;-5.62;100.00
65800;BME280;52544;48.116;11.660;2022-12-18T08:10:16;96904.97;;;-5.64;100.00
65800;BME280;52544;48.116;11.660;2022-12-18T08:12:41;96903.22;;;-5.65;100.00
65800;BME280;52544;48.116;11.660;2022-12-18T08:15:07;96913.53;;;-5.65;100.00
65800;BME280;52544;48.116;11.660;2022-12-18T08:17:33;96910.97;;;-5.58;100.00
65800;BME280;52544;48.116;11.660;2022-12-18T08:19:58;96920.41;;;-5.61;100.00
65800;BME280;52544;48.116;11.660;2022-12-18T08:22:23;96925.59;;;-5.55;100.00
65800;BME280;52544;48.116;11.660;2022-12-18T08:24:49;96923.84;;;-5.53;100.00
65800;BME280;52544;48.116;11.660;2022-12-18T08:27:15;96929.03;;;-5.56;100.00
65800;BME280;52544;48.116;11.660;2022-12-18T08:29:41;96929.88;;;-5.54;100.00
65800;BME280;52544;48.116;11.660;2022-12-18T08:32:06;96934.19;;;-5.55;100.00
65800;BME280;52544;48.116;11.660;2022-12-18T08:34:32;96935.91;;;-5.52;100.00
65800;BME280;52544;48.116;11.660;2022-12-18T08:36:57;96923.88;;;-5.51;100.00
65800;BME280;52544;48.116;11.660;2022-12-18T08:39:23;96923.00;;;-5.47;100.00
65800;BME280;52544;48.116;11.660;2022-12-18T08:41:49;96922.97;;;-5.44;100.00
65800;BME280;52544;48.116;11.660;2022-12-18T08:44:34;96923.84;;;-5.41;100.00
65800;BME280;52544;48.116;11.660;2022-12-18T08:47:03;96924.72;;;-5.45;100.00
65800;BME280;52544;48.116;11.660;2022-12-18T08:49:28;96929.00;;;-5.41;100.00
65800;BME280;52544;48.116;11.660;2022-12-18T08:51:55;96929.84;;;-5.37;100.00
65800;BME280;52544;48.116;11.660;2022-12-18T08:54:25;96931.59;;;-5.39;100.00
65800;BME280;52544;48.116;11.660;2022-12-18T08:56:51;96934.16;;;-5.44;100.00
65800;BME280;52544;48.116;11.660;2022-12-18T08:59:19;96929.84;;;-5.48;100.00
65800;BME280;52544;48.116;11.660;2022-12-18T09:01:45;96932.44;;;-5.45;100.00
65800;BME280;52544;48.116;11.660;2022-12-18T09:04:11;96939.31;;;-5.41;100.00
65800;BME280;52544;48.116;11.660;2022-12-18T09:06:37;96947.94;;;-5.45;100.00
65800;BME280;52544;48.116;11.660;2022-12-18T09:09:04;96940.19;;;-5.54;100.00
65800;BME280;52544;48.116;11.660;2022-12-18T09:11:30;96945.34;;;-5.54;100.00
65800;BME280;52544;48.116;11.660;2022-12-18T09:13:58;96945.38;;;-5.59;100.00
65800;BME280;52544;48.116;11.660;2022-12-18T09:16:26;96942.78;;;-5.54;100.00
65800;BME280;52544;48.116;11.660;2022-12-18T09:18:57;96941.06;;;-5.58;100.00
65800;BME280;52544;48.116;11.660;2022-12-18T09:21:29;96949.66;;;-5.59;100.00
65800;BME280;52544;48.116;11.660;2022-12-18T09:23:56;96950.53;;;-5.60;100.00
65800;BME280;52544;48.116;11.660;2022-12-18T09:26:23;96936.78;;;-5.67;100.00
65800;BME280;52544;48.116;11.660;2022-12-18T09:28:49;96932.47;;;-5.62;100.00
65800;BME280;52544;48.116;11.660;2022-12-18T09:31:16;96940.22;;;-5.63;100.00
65800;BME280;52544;48.116;11.660;2022-12-18T09:33:42;96928.16;;;-5.57;100.00
65800;BME280;52544;48.116;11.660;2022-12-18T09:36:10;96935.91;;;-5.52;100.00
65800;BME280;52544;48.116;11.660;2022-12-18T09:38:36;96935.91;;;-5.52;100.00
65800;BME280;52544;48.116;11.660;2022-12-18T09:41:39;96934.19;;;-5.56;100.00
65800;BME280;52544;48.116;11.660;2022-12-18T09:47:02;96942.78;;;-5.54;100.00
65800;BME280;52544;48.116;11.660;2022-12-18T09:49:35;96937.59;;;-5.48;100.00
65800;BME280;52544;48.116;11.660;2022-12-18T09:52:12;96938.47;;;-5.41;100.00
65800;BME280;52544;48.116;11.660;2022-12-18T09:54:41;96934.19;;;-5.39;100.00
65800;BME280;52544;48.116;11.660;2022-12-18T09:57:14;96930.72;;;-5.40;100.00
65800;BME280;52544;48.116;11.660;2022-12-18T09:59:59;96924.72;;;-5.46;100.00
65800;BME280;52544;48.116;11.660;2022-12-18T10:02:30;96929.03;;;-5.56;100.00
65800;BME280;52544;48.116;11.660;2022-12-18T10:05:03;96923.84;;;-5.50;100.00
65800;BME280;52544;48.116;11.660;2022-12-18T10:10:33;96915.22;;;-5.40;100.00
65800;BME280;52544;48.116;11.660;2022-12-18T10:13:12;96910.06;;;-5.37;100.00
65800;BME280;52544;48.116;11.660;2022-12-18T10:20:57;96901.50;;;-5.49;100.00
65800;BME280;52544;48.116;11.660;2022-12-18T10:23:44;96905.78;;;-5.42;100.00
65800;BME280;52544;48.116;11.660;2022-12-18T10:26:14;96904.06;;;-5.39;100.00
65800;BME280;52544;48.116;11.660;2022-12-18T10:28:43;96898.03;;;-5.38;100.00
65800;BME280;52544;48.116;11.660;2022-12-18T10:31:21;96896.31;;;-5.48;100.00
65800;BME280;52544;48.116;11.660;2022-12-18T10:33:47;96890.31;;;-5.48;100.00
65800;BME280;52544;48.116;11.660;2022-12-18T10:36:12;96891.16;;;-5.45;100.00
65800;BME280;52544;48.116;11.660;2022-12-18T10:38:38;96892.91;;;-5.47;100.00
65800;BME280;52544;48.116;11.660;2022-12-18T10:41:05;96878.28;;;-5.43;100.00
65800;BME280;52544;48.116;11.660;2022-12-18T10:43:31;96879.97;;;-5.33;100.00
65800;BME280;52544;48.116;11.660;2022-12-18T10:48:32;96883.44;;;-5.43;100.00
65800;BME280;52544;48.116;11.660;2022-12-18T10:50:58;96891.16;;;-5.48;100.00
65800;BME280;52544;48.116;11.660;2022-12-18T10:53:28;96888.59;;;-5.51;100.00
65800;BME280;52544;48.116;11.660;2022-12-18T10:55:57;96891.16;;;-5.53;100.00
65800;BME280;52544;48.116;11.660;2022-12-18T10:58:31;96892.06;;;-5.52;100.00
65800;BME280;52544;48.116;11.660;2022-12-18T11:01:26;96885.16;;;-5.42;100.00
65800;BME280;52544;48.116;11.660;2022-12-18T11:06:19;96886.84;;;-5.29;100.00
65800;BME280;52544;48.116;11.660;2022-12-18T11:09:00;96889.41;;;-5.26;100.00
65800;BME280;52544;48.116;11.660;2022-12-18T11:11:26;96899.72;;;-5.23;100.00
65800;BME280;52544;48.116;11.660;2022-12-18T11:14:06;96892.84;;;-5.18;100.00
65800;BME280;52544;48.116;11.660;2022-12-18T11:16:42;96900.59;;;-5.22;100.00
65800;BME280;52544;48.116;11.660;2022-12-18T11:19:19;96904.00;;;-5.16;100.00
65800;BME280;52544;48.116;11.660;2022-12-18T11:21:50;96901.41;;;-5.11;100.00
65800;BME280;52544;48.116;11.660;2022-12-18T11:24:29;96892.78;;;-5.10;100.00
65800;BME280;52544;48.116;11.660;2022-12-18T11:26:57;96897.06;;;-4.97;100.00
65800;BME280;52544;48.116;11.660;2022-12-18T11:29:37;96897.06;;;-4.97;100.00
65800;BME280;52544;48.116;11.660;2022-12-18T11:32:24;96889.31;;;-4.97;100.00
65800;BME280;52544;48.116;11.660;2022-12-18T11:34:58;96902.22;;;-5.00;100.00
65800;BME280;52544;48.116;11.660;2022-12-18T11:37:24;96900.47;;;-4.92;100.00
65800;BME280;52544;48.116;11.660;2022-12-18T11:39:59;96895.31;;;-4.95;100.00
65800;BME280;52544;48.116;11.660;2022-12-18T11:42:44;96882.38;;;-4.89;100.00
65800;BME280;52544;48.116;11.660;2022-12-18T11:50:19;96875.44;;;-4.74;100.00
65800;BME280;52544;48.116;11.660;2022-12-18T11:52:47;96872.84;;;-4.73;100.00
65800;BME280;52544;48.116;11.660;2022-12-18T11:55:28;96869.41;;;-4.73;100.00
65800;BME280;52544;48.116;11.660;2022-12-18T11:58:32;96864.31;;;-4.87;100.00
65800;BME280;52544;48.116;11.660;2022-12-18T12:06:23;96870.31;;;-4.85;100.00
65800;BME280;52544;48.116;11.660;2022-12-18T12:09:15;96870.31;;;-4.87;100.00
65800;BME280;52544;48.116;11.660;2022-12-18T12:17:39;96863.47;;;-4.91;100.00
65800;BME280;52544;48.116;11.660;2022-12-18T12:23:15;96864.28;;;-4.86;100.00
65800;BME280;52544;48.116;11.660;2022-12-18T12:28:36;96860.00;;;-4.87;100.00
65800;BME280;52544;48.116;11.660;2022-12-18T12:39:18;96841.19;;;-5.13;100.00
65800;BME280;52544;48.116;11.660;2022-12-18T12:41:46;96840.28;;;-5.06;100.00
65800;BME280;52544;48.116;11.660;2022-12-18T12:44:37;96843.72;;;-5.04;100.00
65800;BME280;52544;48.116;11.660;2022-12-18T12:47:17;96834.28;;;-5.05;100.00
65800;BME280;52544;48.116;11.660;2022-12-18T12:49:45;96840.28;;;-5.06;100.00
65800;BME280;52544;48.116;11.660;2022-12-18T12:52:31;96841.16;;;-5.10;100.00
65800;BME280;52544;48.116;11.660;2022-12-18T12:54:59;96842.88;;;-5.08;100.00
65800;BME280;52544;48.116;11.660;2022-12-18T12:57:37;96841.97;;;-4.99;100.00
65800;BME280;52544;48.116;11.660;2022-12-18T13:00:18;96841.94;;;-4.97;100.00
65800;BME280;52544;48.116;11.660;2022-12-18T13:05:40;96846.22;;;-4.86;100.00
65800;BME280;52544;48.116;11.660;2022-12-18T13:08:10;96844.44;;;-4.78;100.00
65800;BME280;52544;48.116;11.660;2022-12-18T13:10:44;96846.09;;;-4.64;100.00
65800;BME280;52544;48.116;11.660;2022-12-18T13:13:11;96849.59;;;-4.71;100.00
65800;BME280;52544;48.116;11.660;2022-12-18T13:16:04;96846.09;;;-4.64;100.00
65800;BME280;52544;48.116;11.660;2022-12-18T13:18:31;96847.81;;;-4.68;100.00
65800;BME280;52544;48.116;11.660;2022-12-18T13:25:52;96862.41;;;-4.59;100.00
65800;BME280;52544;48.116;11.660;2022-12-18T13:28:49;96873.63;;;-4.63;100.00
65800;BME280;52544;48.116;11.660;2022-12-18T13:31:09;96854.66;;;-4.59;100.00
65800;BME280;52544;48.116;11.660;2022-12-18T13:38:39;96862.47;;;-4.62;100.00
65800;BME280;52544;48.116;11.660;2022-12-18T13:43:43;96865.03;;;-4.64;100.00
65800;BME280;52544;48.116;11.660;2022-12-18T13:46:26;96865.03;;;-4.62;100.00
65800;BME280;52544;48.116;11.660;2022-12-18T13:48:55;96864.22;;;-4.73;100.00
65800;BME280;52544;48.116;11.660;2022-12-18T13:51:22;96865.09;;;-4.78;100.00
65800;BME280;52544;48.116;11.660;2022-12-18T13:53:54;96871.16;;;-4.85;100.00
65800;BME280;52544;48.116;11.660;2022-12-18T13:56:34;96854.84;;;-4.87;100.00
65800;BME280;52544;48.116;11.660;2022-12-18T13:59:22;96850.53;;;-4.91;100.00
65800;BME280;52544;48.116;11.660;2022-12-18T14:01:50;96851.44;;;-4.98;100.00
65800;BME280;52544;48.116;11.660;2022-12-18T14:04:22;96848.00;;;-5.03;100.00
65800;BME280;52544;48.116;11.660;2022-12-18T14:06:51;96853.22;;;-5.15;100.00
65800;BME280;52544;48.116;11.660;2022-12-18T14:09:23;96841.22;;;-5.22;100.00
65800;BME280;52544;48.116;11.660;2022-12-18T14:11:50;96850.72;;;-5.31;100.00
65800;BME280;52544;48.116;11.660;2022-12-18T14:14:17;96852.44;;;-5.30;100.00